createdAt,value
2023-05-13T00:03:01.091Z,997.01
2023-05-13T00:08:05.194Z,997.00
2023-05-13T00:13:07.428Z,996.99
2023-05-13T00:18:11.607Z,996.98
2023-05-13T00:23:15.770Z,996.89
2023-05-13T00:28:19.925Z,996.85
2023-05-13T00:33:24.114Z,996.91
2023-05-13T00:38:28.256Z,996.84
2023-05-13T00:43:32.379Z,996.81
2023-05-13T00:48:36.565Z,996.74
2023-05-13T00:53:40.723Z,996.87
2023-05-13T00:58:44.886Z,996.88
2023-05-13T01:03:49.049Z,996.85
2023-05-13T01:08:53.188Z,996.83
2023-05-13T01:13:57.334Z,996.86
2023-05-13T01:19:01.554Z,996.71
2023-05-13T01:24:05.726Z,996.77
2023-05-13T01:29:09.855Z,996.80
2023-05-13T01:34:14.022Z,996.92
2023-05-13T01:39:18.189Z,996.89
2023-05-13T01:44:22.329Z,996.84
2023-05-13T01:49:26.494Z,996.81
2023-05-13T01:54:30.647Z,996.89
2023-05-13T01:59:34.810Z,996.87
2023-05-13T02:04:38.995Z,996.90
2023-05-13T02:09:43.149Z,996.83
2023-05-13T02:14:47.339Z,996.88
2023-05-13T02:19:51.481Z,996.85
2023-05-13T02:24:55.632Z,996.91
2023-05-13T02:29:59.772Z,996.76
2023-05-13T02:35:03.930Z,996.74
2023-05-13T02:40:08.147Z,996.66
2023-05-13T02:45:12.273Z,996.55
2023-05-13T02:50:16.432Z,996.56
2023-05-13T02:55:20.736Z,996.47
2023-05-13T03:00:24.774Z,996.52
2023-05-13T03:05:29.875Z,996.46
2023-05-13T03:10:33.231Z,996.45
2023-05-13T03:15:37.301Z,996.38
2023-05-13T03:20:41.450Z,996.39
2023-05-13T03:25:45.589Z,996.35
2023-05-13T03:30:49.729Z,996.44
2023-05-13T03:35:53.984Z,996.29
2023-05-13T03:40:58.072Z,996.30
2023-05-13T03:46:02.245Z,996.30
2023-05-13T03:51:06.364Z,996.36
2023-05-13T03:56:12.167Z,996.33
2023-05-13T04:01:14.691Z,996.28
2023-05-13T04:06:18.898Z,996.26
2023-05-13T04:11:23.072Z,996.36
2023-05-13T04:16:27.228Z,996.34
2023-05-13T04:21:31.364Z,996.24
2023-05-13T04:26:35.522Z,996.26
2023-05-13T04:31:39.706Z,996.31
2023-05-13T04:36:43.872Z,996.27
2023-05-13T04:41:48.025Z,996.17
2023-05-13T04:46:52.164Z,996.15
2023-05-13T04:51:56.341Z,996.23
2023-05-13T04:57:00.529Z,996.18
2023-05-13T05:02:04.801Z,996.12
2023-05-13T05:07:08.844Z,996.15
2023-05-13T05:12:13.022Z,996.10
2023-05-13T05:17:17.229Z,996.06
2023-05-13T05:22:21.341Z,996.12
2023-05-13T05:27:25.455Z,996.26
2023-05-13T05:32:29.656Z,996.22
2023-05-13T05:37:33.917Z,996.20
2023-05-13T05:42:36.040Z,996.03
2023-05-13T05:47:40.263Z,995.95
2023-05-13T05:52:44.415Z,995.70
2023-05-13T05:57:48.668Z,995.55
2023-05-13T06:02:52.730Z,995.48
2023-05-13T06:07:56.828Z,995.39
2023-05-13T06:13:01.063Z,995.44
2023-05-13T06:18:05.220Z,995.62
2023-05-13T06:23:09.372Z,995.78
2023-05-13T06:28:13.531Z,995.73
2023-05-13T06:33:17.743Z,995.72
2023-05-13T06:38:21.876Z,995.52
2023-05-13T06:43:26.040Z,995.45
2023-05-13T06:48:30.178Z,995.30
2023-05-13T06:53:34.303Z,995.12
2023-05-13T06:58:38.455Z,994.83
2023-05-13T07:03:42.736Z,994.66
2023-05-13T07:08:46.780Z,994.41
2023-05-13T07:13:50.988Z,994.15
2023-05-13T07:18:55.212Z,993.81
2023-05-13T07:23:59.308Z,993.48
2023-05-13T07:29:03.519Z,993.27
2023-05-13T07:34:07.591Z,993.09
2023-05-13T07:39:11.759Z,992.97
2023-05-13T07:44:15.951Z,993.17
2023-05-13T07:49:20.092Z,994.08
2023-05-13T07:59:28.435Z,996.67
2023-05-13T08:04:32.560Z,997.57
2023-05-13T08:09:36.687Z,997.97
2023-05-13T08:14:40.901Z,998.09
2023-05-13T08:19:45.055Z,998.34
2023-05-13T08:24:49.211Z,998.45
2023-05-13T08:29:53.384Z,998.64
2023-05-13T08:34:57.783Z,998.83
2023-05-13T08:40:01.686Z,998.84
2023-05-13T08:45:05.827Z,998.86
2023-05-13T08:50:10.047Z,998.93
2023-05-13T08:55:14.174Z,998.93
2023-05-13T09:00:20.631Z,998.98
2023-05-13T09:05:22.921Z,998.99
2023-05-13T09:10:26.647Z,998.93
2023-05-13T09:15:30.813Z,998.92
2023-05-13T09:20:34.956Z,998.80
2023-05-13T09:25:39.144Z,998.69
2023-05-13T09:30:45.443Z,998.39
2023-05-13T09:35:47.397Z,998.44
2023-05-13T09:40:51.599Z,997.92
2023-05-13T09:45:55.768Z,999.97
2023-05-13T09:51:00.451Z,1002.84
2023-05-13T09:56:04.088Z,1005.12
2023-05-13T10:01:08.264Z,1005.50
2023-05-13T10:06:12.402Z,1006.43
2023-05-13T10:11:16.562Z,1007.12
2023-05-13T10:16:20.765Z,1007.44
2023-05-13T10:21:24.903Z,1007.97
2023-05-13T10:26:29.309Z,1008.05
2023-05-13T10:31:35.996Z,1007.60
2023-05-13T10:36:37.363Z,1008.15
2023-05-13T10:41:41.512Z,1008.15
2023-05-13T10:46:45.726Z,1008.04
2023-05-13T10:51:49.840Z,1008.00
2023-05-13T10:56:53.980Z,1007.94
2023-05-13T11:01:58.151Z,1008.39
2023-05-13T11:07:02.254Z,1008.06
2023-05-13T11:12:04.535Z,1008.16
2023-05-13T11:17:08.722Z,1008.27
2023-05-13T11:22:12.870Z,1008.25
2023-05-13T11:27:17.056Z,1008.11
2023-05-13T11:32:21.201Z,1008.74
2023-05-13T11:37:25.342Z,1008.48
2023-05-13T11:42:29.504Z,1008.63
2023-05-13T11:47:33.715Z,1008.71
2023-05-13T11:52:37.817Z,1008.57
2023-05-13T11:57:41.970Z,1008.73
2023-05-13T12:02:46.217Z,1008.96
2023-05-13T12:07:50.333Z,1008.94
2023-05-13T12:12:54.467Z,1008.89
2023-05-13T12:17:58.657Z,1009.14
2023-05-13T12:23:02.757Z,1009.17
2023-05-13T12:28:06.964Z,1009.25
2023-05-13T12:33:11.165Z,1009.24
2023-05-13T12:38:15.264Z,1009.25
2023-05-13T12:43:19.485Z,1009.33
2023-05-13T12:48:23.584Z,1009.36
2023-05-13T12:53:27.756Z,1009.17
2023-05-13T12:58:31.914Z,1009.18
2023-05-13T13:03:36.178Z,1009.14
2023-05-13T13:08:40.222Z,1009.20
2023-05-13T13:13:44.352Z,1009.20
2023-05-13T13:18:48.591Z,1009.22
2023-05-13T13:23:52.683Z,1009.28
2023-05-13T13:28:56.893Z,1009.33
2023-05-13T13:34:00.987Z,1009.24
2023-05-13T13:39:05.161Z,1009.07
2023-05-13T13:44:09.291Z,1008.99
2023-05-13T13:49:23.396Z,1008.99
2023-05-13T13:54:17.662Z,1008.81
2023-05-13T13:59:22.273Z,1008.93
2023-05-13T14:04:25.963Z,1008.81
2023-05-13T14:09:30.125Z,1008.97
2023-05-13T14:14:34.241Z,1009.03
2023-05-13T14:19:38.440Z,1009.23
2023-05-13T14:24:44.676Z,1006.75
2023-05-13T14:29:46.764Z,1002.43
2023-05-13T14:34:50.912Z,996.93
2023-05-13T14:39:55.076Z,995.41
2023-05-13T14:44:59.224Z,997.00
2023-05-13T14:50:03.518Z,997.89
2023-05-13T14:55:07.570Z,998.08
2023-05-13T15:00:11.705Z,998.40
2023-05-13T15:05:21.115Z,998.95
2023-05-13T15:10:20.178Z,998.37
2023-05-13T15:15:24.180Z,998.36
2023-05-13T15:20:28.347Z,998.35
2023-05-13T15:25:32.521Z,998.32
2023-05-13T15:30:36.740Z,997.70
2023-05-13T15:35:40.798Z,997.74
2023-05-13T15:40:44.987Z,998.51
2023-05-13T15:45:49.142Z,998.80
2023-05-13T15:50:53.323Z,998.74
2023-05-13T15:55:57.463Z,998.74
2023-05-13T16:01:01.611Z,998.69
2023-05-13T16:06:09.157Z,998.29
2023-05-13T16:11:10.083Z,997.96
2023-05-13T16:16:14.227Z,995.94
2023-05-13T16:21:18.366Z,1006.52
2023-05-13T16:26:22.512Z,1007.85
2023-05-13T16:31:26.665Z,1007.83
2023-05-13T16:36:30.813Z,1008.31
2023-05-13T16:46:37.232Z,1008.23
2023-05-13T16:51:41.338Z,1008.65
2023-05-13T16:56:45.503Z,1008.50
2023-05-13T17:01:49.780Z,1007.61
2023-05-13T17:06:53.813Z,1007.16
2023-05-13T17:11:56.098Z,1007.60
2023-05-13T17:17:00.381Z,1007.67
2023-05-13T17:22:04.455Z,1007.57
2023-05-13T17:27:08.557Z,1007.61
2023-05-13T17:32:12.701Z,1007.50
2023-05-13T17:37:16.885Z,1006.28
2023-05-13T17:42:21.052Z,1005.88
2023-05-13T17:47:25.318Z,1005.57
2023-05-13T17:52:29.403Z,1002.49
2023-05-13T17:57:33.493Z,997.83
2023-05-13T18:02:37.737Z,996.89
2023-05-13T18:07:41.906Z,996.48
2023-05-13T18:12:48.474Z,995.69
2023-05-13T18:17:50.219Z,996.81
2023-05-13T18:22:54.372Z,998.03
2023-05-13T18:27:58.471Z,998.34
2023-05-13T18:33:02.739Z,998.45
2023-05-13T18:38:06.823Z,998.79
2023-05-13T18:43:10.950Z,998.82
2023-05-13T18:48:15.243Z,998.80
2023-05-13T18:53:19.289Z,998.87
2023-05-13T18:58:23.579Z,998.93
2023-05-13T19:03:27.711Z,998.90
2023-05-13T19:08:31.805Z,998.96
2023-05-13T19:13:46.697Z,998.93
2023-05-13T19:23:44.266Z,998.92
2023-05-13T19:28:48.381Z,998.90
2023-05-13T19:33:52.539Z,998.91
2023-05-13T19:38:56.689Z,998.83
2023-05-13T19:44:00.868Z,998.87
2023-05-13T19:49:05.019Z,998.84
2023-05-13T19:54:09.199Z,998.75
2023-05-13T19:59:13.382Z,998.80
2023-05-13T20:04:17.514Z,998.70
2023-05-13T20:09:21.681Z,998.64
2023-05-13T20:14:25.825Z,998.44
2023-05-13T20:19:29.965Z,998.24
2023-05-13T20:24:36.495Z,998.20
2023-05-13T20:29:38.290Z,998.06
2023-05-13T20:34:42.452Z,997.99
2023-05-13T20:39:46.617Z,997.91
2023-05-13T20:44:50.825Z,997.89
2023-05-13T20:49:54.977Z,997.83
2023-05-13T20:54:59.077Z,997.86
2023-05-13T21:00:03.245Z,997.87
2023-05-13T21:05:07.459Z,997.82
2023-05-13T21:10:11.623Z,997.82
2023-05-13T21:15:15.754Z,997.87
2023-05-13T21:20:20.013Z,997.85
2023-05-13T21:25:24.055Z,997.90
2023-05-13T21:30:28.233Z,998.01
2023-05-13T21:35:32.404Z,998.06
2023-05-13T21:40:36.542Z,998.03
2023-05-13T21:45:40.735Z,998.06
2023-05-13T21:50:44.874Z,997.99
2023-05-13T21:55:49.017Z,997.99
2023-05-13T22:00:53.206Z,997.90
2023-05-13T22:05:57.355Z,997.97
2023-05-13T22:11:01.486Z,998.02
2023-05-13T22:16:05.725Z,998.01
2023-05-13T22:21:09.838Z,998.02
2023-05-13T22:26:13.996Z,998.08
2023-05-13T22:31:18.208Z,997.99
2023-05-13T22:36:22.306Z,998.01
2023-05-13T22:41:24.585Z,998.06
2023-05-13T22:46:28.813Z,998.09
2023-05-13T22:51:32.866Z,998.08
2023-05-13T22:56:37.101Z,998.00
2023-05-13T23:01:41.254Z,998.03
2023-05-13T23:06:45.371Z,998.08
2023-05-13T23:11:49.574Z,998.02
2023-05-13T23:16:53.731Z,998.15
2023-05-13T23:21:57.861Z,998.11
2023-05-13T23:27:02.053Z,998.02
2023-05-13T23:32:07.144Z,998.00
2023-05-13T23:37:10.362Z,997.96
2023-05-13T23:42:14.564Z,997.91
2023-05-13T23:47:18.643Z,997.88
2023-05-13T23:52:22.862Z,997.85
2023-05-13T23:57:27.010Z,997.87
